createdAt,value
2018-05-13T00:01:11.624Z,12.57
2018-05-13T00:03:42.830Z,12.53
2018-05-13T00:06:14.037Z,12.10
2018-05-13T00:08:45.230Z,11.43
2018-05-13T00:11:16.460Z,12.17
2018-05-13T00:13:47.679Z,12.13
2018-05-13T00:16:19.663Z,11.80
2018-05-13T00:18:50.856Z,12.43
2018-05-13T00:21:22.052Z,12.17
2018-05-13T00:23:53.502Z,13.33
2018-05-13T00:26:24.725Z,12.67
2018-05-13T00:28:56.719Z,12.93
2018-05-13T00:31:27.935Z,13.17
2018-05-13T00:33:59.142Z,12.90
2018-05-13T00:36:30.375Z,13.73
2018-05-13T00:39:01.540Z,12.67
2018-05-13T00:41:34.223Z,12.43
2018-05-13T00:44:05.488Z,13.73
2018-05-13T00:46:36.714Z,13.43
2018-05-13T00:49:08.626Z,13.77
2018-05-13T00:51:39.828Z,13.03
2018-05-13T00:54:24.282Z,13.00
2018-05-13T00:56:56.296Z,13.00
2018-05-13T00:59:27.563Z,14.93
2018-05-13T01:01:58.785Z,13.80
2018-05-13T01:04:29.971Z,13.80
2018-05-13T01:07:01.957Z,14.40
2018-05-13T01:09:33.878Z,13.93
2018-05-13T01:12:05.106Z,14.87
2018-05-13T01:14:36.315Z,13.97
2018-05-13T01:17:08.275Z,13.70
2018-05-13T01:19:40.212Z,14.20
2018-05-13T01:22:12.890Z,15.93
2018-05-13T01:24:44.090Z,14.80
2018-05-13T01:27:15.559Z,14.67
2018-05-13T01:29:46.732Z,15.27
2018-05-13T01:32:18.922Z,14.60
2018-05-13T01:34:50.092Z,14.60
2018-05-13T01:37:21.333Z,15.27
2018-05-13T01:39:52.547Z,16.50
2018-05-13T01:42:23.826Z,15.10
2018-05-13T01:44:55.050Z,15.43
2018-05-13T01:47:26.275Z,15.20
2018-05-13T01:49:57.585Z,15.70
2018-05-13T01:52:29.179Z,15.83
2018-05-13T01:55:00.324Z,16.27
2018-05-13T01:57:31.705Z,15.73
2018-05-13T02:00:03.667Z,16.10
2018-05-13T02:02:35.667Z,15.47
2018-05-13T02:05:07.584Z,16.80
2018-05-13T02:07:38.878Z,16.20
2018-05-13T02:10:10.853Z,16.00
2018-05-13T02:12:42.027Z,17.13
2018-05-13T02:15:13.345Z,16.37
2018-05-13T02:17:44.618Z,16.87
2018-05-13T02:20:15.812Z,16.83
2018-05-13T02:22:47.711Z,17.90
2018-05-13T02:25:18.970Z,16.43
2018-05-13T02:27:50.159Z,17.10
2018-05-13T02:30:22.490Z,18.13
2018-05-13T02:32:53.687Z,17.80
2018-05-13T02:35:24.969Z,18.47
2018-05-13T02:37:56.498Z,19.30
2018-05-13T02:40:27.686Z,17.40
2018-05-13T02:42:58.908Z,19.47
2018-05-13T02:45:30.083Z,18.87
2018-05-13T02:48:01.906Z,18.27
2018-05-13T02:50:33.090Z,20.23
2018-05-13T02:53:04.340Z,20.23
2018-05-13T02:55:36.294Z,19.87
2018-05-13T02:58:07.569Z,20.30
2018-05-13T03:00:38.793Z,20.20
2018-05-13T03:03:10.016Z,20.80
2018-05-13T03:05:41.436Z,20.30
2018-05-13T03:08:12.662Z,20.50
2018-05-13T03:10:43.875Z,20.20
2018-05-13T03:13:15.836Z,21.63
2018-05-13T03:15:47.780Z,20.73
2018-05-13T03:18:19.787Z,21.03
2018-05-13T03:20:51.008Z,21.60
2018-05-13T03:23:22.966Z,21.57
2018-05-13T03:25:54.917Z,21.70
2018-05-13T03:28:26.093Z,20.63
2018-05-13T03:30:57.320Z,21.70
2018-05-13T03:33:29.225Z,22.53
2018-05-13T03:36:00.480Z,21.17
2018-05-13T03:38:31.714Z,22.57
2018-05-13T03:41:02.908Z,22.00
2018-05-13T03:43:34.928Z,22.37
2018-05-13T03:46:06.085Z,23.53
2018-05-13T03:48:38.405Z,22.00
2018-05-13T03:51:09.590Z,22.57
2018-05-13T03:53:40.813Z,23.33
2018-05-13T03:56:12.039Z,23.23
2018-05-13T03:58:43.332Z,22.70
2018-05-13T04:01:14.534Z,22.33
2018-05-13T04:03:45.810Z,23.90
2018-05-13T04:06:16.991Z,23.87
2018-05-13T04:09:01.463Z,23.27
2018-05-13T04:11:45.052Z,23.00
2018-05-13T04:14:28.776Z,22.43
2018-05-13T04:16:59.948Z,24.00
2018-05-13T04:19:32.802Z,23.33
2018-05-13T04:22:04.315Z,24.70
2018-05-13T04:24:35.482Z,24.03
2018-05-13T04:27:06.968Z,24.37
2018-05-13T04:29:38.149Z,26.20
2018-05-13T04:32:09.398Z,24.30
2018-05-13T04:34:40.618Z,25.07
2018-05-13T04:37:11.888Z,25.00
2018-05-13T04:39:43.179Z,23.67
2018-05-13T04:42:14.424Z,23.47
2018-05-13T04:44:45.615Z,24.37
2018-05-13T04:47:16.915Z,24.83
2018-05-13T04:49:48.207Z,25.50
2018-05-13T04:52:19.371Z,24.70
2018-05-13T04:54:50.603Z,24.50
2018-05-13T04:57:21.787Z,24.17
2018-05-13T04:59:53.020Z,24.30
2018-05-13T05:02:24.208Z,24.37
2018-05-13T05:04:56.204Z,24.00
2018-05-13T05:07:27.410Z,25.93
2018-05-13T05:09:59.386Z,24.83
2018-05-13T05:12:31.313Z,26.00
2018-05-13T05:15:03.320Z,26.23
2018-05-13T05:17:34.479Z,24.83
2018-05-13T05:20:05.727Z,25.60
2018-05-13T05:22:36.896Z,25.07
2018-05-13T05:25:08.163Z,23.17
2018-05-13T05:27:40.088Z,23.10
2018-05-13T05:30:11.323Z,24.07
2018-05-13T05:32:42.486Z,23.93
2018-05-13T05:35:13.707Z,23.80
2018-05-13T05:37:44.934Z,22.97
2018-05-13T05:40:16.163Z,23.40
2018-05-13T05:42:47.340Z,22.93
2018-05-13T05:45:18.557Z,21.73
2018-05-13T05:47:49.750Z,21.17
2018-05-13T05:50:20.944Z,21.77
2018-05-13T05:52:52.561Z,21.90
2018-05-13T05:55:23.714Z,21.57
2018-05-13T05:57:55.801Z,20.73
2018-05-13T06:00:27.297Z,19.60
2018-05-13T06:02:58.511Z,19.27
2018-05-13T06:05:29.747Z,20.40
2018-05-13T06:08:00.932Z,19.47
2018-05-13T06:10:32.181Z,19.03
2018-05-13T06:13:04.170Z,19.40
2018-05-13T06:15:36.117Z,19.60
2018-05-13T06:18:07.281Z,18.47
2018-05-13T06:20:38.557Z,18.17
2018-05-13T06:23:09.747Z,18.53
2018-05-13T06:25:40.994Z,18.13
2018-05-13T06:28:12.935Z,18.30
2018-05-13T06:30:44.163Z,17.47
2018-05-13T06:33:15.350Z,17.90
2018-05-13T06:35:46.585Z,18.87
2018-05-13T06:38:17.798Z,17.33
2018-05-13T06:40:49.031Z,17.83
2018-05-13T06:43:20.227Z,17.93
2018-05-13T06:45:52.343Z,18.17
2018-05-13T06:48:23.508Z,17.57
2018-05-13T06:50:54.758Z,15.83
2018-05-13T06:53:25.947Z,16.20
2018-05-13T06:55:57.189Z,16.07
2018-05-13T06:58:28.357Z,15.27
2018-05-13T07:00:59.623Z,15.13
2018-05-13T07:03:31.871Z,14.23
2018-05-13T07:06:03.062Z,13.90
2018-05-13T07:08:34.992Z,14.00
2018-05-13T07:11:06.240Z,15.03
2018-05-13T07:13:37.478Z,14.40
2018-05-13T07:16:08.709Z,14.57
2018-05-13T07:18:39.875Z,14.73
2018-05-13T07:21:12.935Z,14.50
2018-05-13T07:23:44.218Z,13.77
2018-05-13T07:26:15.499Z,13.10
2018-05-13T07:28:46.686Z,12.67
2018-05-13T07:31:18.222Z,12.80
2018-05-13T07:33:49.388Z,12.00
2018-05-13T07:36:20.582Z,13.97
2018-05-13T07:38:51.757Z,13.20
2018-05-13T07:41:23.386Z,11.80
2018-05-13T07:43:54.580Z,12.43
2018-05-13T07:46:25.796Z,12.10
2018-05-13T07:48:57.010Z,11.27
2018-05-13T07:51:28.290Z,11.63
2018-05-13T07:53:59.567Z,10.53
2018-05-13T07:56:31.602Z,11.63
2018-05-13T07:59:02.837Z,10.80
2018-05-13T08:01:34.142Z,10.60
2018-05-13T08:04:05.335Z,10.50
2018-05-13T08:06:36.856Z,10.33
2018-05-13T08:09:08.032Z,10.27
2018-05-13T08:11:39.268Z,9.67
2018-05-13T08:14:10.516Z,9.87
2018-05-13T08:16:41.828Z,9.10
2018-05-13T08:19:13.034Z,8.60
2018-05-13T08:21:44.342Z,8.90
2018-05-13T08:24:15.600Z,8.77
2018-05-13T08:26:46.852Z,9.27
2018-05-13T08:29:18.058Z,8.10
2018-05-13T08:31:50.084Z,8.03
2018-05-13T08:34:21.358Z,7.50
2018-05-13T08:36:52.710Z,6.93
2018-05-13T08:39:24.797Z,6.60
2018-05-13T08:41:55.976Z,6.77
2018-05-13T08:44:27.193Z,6.33
2018-05-13T08:46:58.427Z,6.63
2018-05-13T08:49:29.685Z,6.53
2018-05-13T08:52:00.870Z,5.87
2018-05-13T08:54:32.849Z,6.00
2018-05-13T08:57:04.153Z,5.40
2018-05-13T08:59:35.435Z,5.87
2018-05-13T09:02:07.435Z,6.23
2018-05-13T09:04:38.650Z,5.70
2018-05-13T09:07:09.840Z,5.60
2018-05-13T09:09:41.058Z,5.37
2018-05-13T09:12:12.272Z,5.03
2018-05-13T09:14:43.545Z,5.27
2018-05-13T09:17:15.185Z,5.07
2018-05-13T09:19:46.426Z,5.40
2018-05-13T09:22:17.708Z,5.27
2018-05-13T09:24:48.908Z,5.10
2018-05-13T09:27:20.261Z,4.60
2018-05-13T09:29:51.514Z,4.83
2018-05-13T09:32:22.830Z,5.57
2018-05-13T09:34:54.791Z,5.07
2018-05-13T09:37:26.798Z,5.10
2018-05-13T09:39:58.058Z,4.70
2018-05-13T09:42:29.252Z,4.77
2018-05-13T09:45:00.495Z,4.60
2018-05-13T09:47:31.729Z,4.30
2018-05-13T09:50:03.744Z,4.40
2018-05-13T09:52:35.040Z,5.00
2018-05-13T09:55:06.964Z,4.10
2018-05-13T09:57:38.196Z,4.70
2018-05-13T10:00:09.423Z,4.37
2018-05-13T10:02:41.083Z,3.73
2018-05-13T10:05:12.302Z,4.40
2018-05-13T10:07:43.854Z,4.10
2018-05-13T10:10:15.120Z,3.70
2018-05-13T10:12:46.388Z,3.80
2018-05-13T10:15:17.572Z,3.70
2018-05-13T10:17:49.575Z,4.00
2018-05-13T10:20:21.110Z,3.80
2018-05-13T10:22:52.368Z,3.60
2018-05-13T10:25:23.925Z,3.40
2018-05-13T10:27:55.513Z,3.80
2018-05-13T10:30:26.717Z,3.73
2018-05-13T10:32:58.038Z,3.67
2018-05-13T10:35:29.356Z,3.50
2018-05-13T10:38:01.318Z,3.43
2018-05-13T10:40:33.249Z,4.60
2018-05-13T10:43:04.781Z,6.00
2018-05-13T10:45:35.974Z,4.67
2018-05-13T10:48:07.938Z,4.63
2018-05-13T10:50:40.387Z,3.63
2018-05-13T10:53:11.582Z,3.77
2018-05-13T10:55:42.879Z,3.50
2018-05-13T10:58:14.406Z,3.00
2018-05-13T11:00:45.630Z,3.40
2018-05-13T11:03:16.955Z,4.70
2018-05-13T11:05:48.926Z,3.63
2018-05-13T11:08:20.206Z,3.87
2018-05-13T11:10:51.443Z,3.87
2018-05-13T11:13:22.692Z,4.50
2018-05-13T11:15:53.984Z,4.70
2018-05-13T11:18:26.313Z,3.00
2018-05-13T11:20:57.503Z,3.20
2018-05-13T11:23:29.565Z,2.97
2018-05-13T11:26:01.599Z,3.20
2018-05-13T11:28:32.825Z,3.70
2018-05-13T11:31:04.126Z,3.47
2018-05-13T11:33:36.051Z,5.50
2018-05-13T11:36:07.647Z,3.33
2018-05-13T11:38:38.886Z,3.73
2018-05-13T11:41:10.108Z,3.40
2018-05-13T11:43:42.123Z,3.47
2018-05-13T11:46:13.790Z,3.70
2018-05-13T11:48:45.794Z,3.80
2018-05-13T11:51:17.786Z,3.40
2018-05-13T11:53:48.989Z,3.30
2018-05-13T11:56:20.959Z,3.33
2018-05-13T11:58:52.999Z,3.20
2018-05-13T12:01:24.852Z,3.00
2018-05-13T12:03:56.030Z,3.73
2018-05-13T12:06:28.318Z,3.17
2018-05-13T12:08:59.632Z,3.30
2018-05-13T12:11:31.574Z,3.53
2018-05-13T12:14:02.787Z,3.30
2018-05-13T12:16:34.214Z,3.87
2018-05-13T12:19:05.412Z,3.50
2018-05-13T12:21:36.742Z,3.43
2018-05-13T12:24:08.059Z,5.00
2018-05-13T12:26:39.294Z,3.30
2018-05-13T12:29:10.470Z,4.43
2018-05-13T12:31:41.710Z,4.20
2018-05-13T12:34:13.275Z,3.60
2018-05-13T12:36:44.552Z,4.57
2018-05-13T12:39:16.519Z,3.93
2018-05-13T12:41:48.099Z,4.53
2018-05-13T12:44:19.353Z,4.23
2018-05-13T12:46:50.655Z,4.30
2018-05-13T12:49:22.635Z,3.80
2018-05-13T12:51:54.854Z,3.73
2018-05-13T12:54:26.063Z,3.20
2018-05-13T12:56:57.619Z,3.77
2018-05-13T12:59:28.818Z,3.17
2018-05-13T13:02:01.120Z,3.30
2018-05-13T13:04:32.301Z,3.60
2018-05-13T13:07:03.576Z,3.53
2018-05-13T13:09:34.809Z,3.67
2018-05-13T13:12:06.025Z,3.83
2018-05-13T13:14:37.263Z,3.90
2018-05-13T13:17:08.474Z,4.07
2018-05-13T13:19:40.451Z,4.23
2018-05-13T13:22:12.092Z,4.10
2018-05-13T13:24:43.247Z,3.90
2018-05-13T13:27:14.540Z,4.17
2018-05-13T13:29:45.772Z,4.63
2018-05-13T13:32:17.030Z,4.40
2018-05-13T13:34:48.223Z,4.27
2018-05-13T13:37:19.425Z,4.00
2018-05-13T13:39:51.027Z,3.80
2018-05-13T13:42:22.210Z,3.57
2018-05-13T13:44:53.573Z,3.87
2018-05-13T13:47:24.877Z,3.87
2018-05-13T13:49:56.034Z,3.80
2018-05-13T13:52:27.259Z,4.17
2018-05-13T13:54:58.476Z,8.40
2018-05-13T13:57:30.063Z,4.90
2018-05-13T14:00:01.300Z,4.33
2018-05-13T14:02:32.529Z,4.00
2018-05-13T14:05:03.770Z,3.40
2018-05-13T14:07:35.040Z,4.23
2018-05-13T14:10:06.292Z,4.77
2018-05-13T14:12:37.579Z,5.20
2018-05-13T14:15:09.084Z,4.40
2018-05-13T14:17:40.297Z,4.13
2018-05-13T14:20:11.619Z,4.10
2018-05-13T14:22:42.813Z,3.67
2018-05-13T14:25:14.139Z,5.10
2018-05-13T14:27:45.353Z,4.17
2018-05-13T14:30:17.343Z,6.97
2018-05-13T14:32:48.616Z,6.57
2018-05-13T14:35:20.856Z,5.23
2018-05-13T14:37:52.041Z,7.20
2018-05-13T14:40:23.603Z,3.57
2018-05-13T14:42:54.929Z,4.00
2018-05-13T14:45:26.347Z,3.50
2018-05-13T14:47:57.627Z,7.30
2018-05-13T14:50:29.558Z,3.70
2018-05-13T14:53:00.829Z,3.77
2018-05-13T14:55:32.046Z,4.83
2018-05-13T14:58:03.277Z,4.30
2018-05-13T15:00:35.279Z,3.70
2018-05-13T15:03:06.442Z,4.40
2018-05-13T15:05:38.065Z,3.93
2018-05-13T15:08:09.605Z,4.20
2018-05-13T15:10:40.762Z,4.10
2018-05-13T15:13:11.984Z,5.23
2018-05-13T15:15:43.299Z,3.50
2018-05-13T15:18:14.537Z,3.60
2018-05-13T15:20:45.718Z,3.30
2018-05-13T15:23:16.928Z,3.50
2018-05-13T15:25:48.203Z,3.73
2018-05-13T15:28:19.437Z,3.30
2018-05-13T15:30:51.357Z,3.67
2018-05-13T15:33:22.591Z,3.00
2018-05-13T15:35:53.765Z,3.80
2018-05-13T15:38:25.036Z,3.20
2018-05-13T15:40:56.231Z,3.47
2018-05-13T15:43:27.860Z,3.10
2018-05-13T15:45:59.078Z,3.07
2018-05-13T15:48:30.542Z,4.93
2018-05-13T15:51:01.725Z,7.20
2018-05-13T15:53:32.993Z,3.03
2018-05-13T15:56:05.387Z,4.43
2018-05-13T15:58:36.618Z,3.43
2018-05-13T16:01:07.925Z,3.20
2018-05-13T16:03:39.511Z,3.53
2018-05-13T16:06:10.785Z,4.47
2018-05-13T16:08:42.075Z,3.60
2018-05-13T16:11:13.291Z,3.30
2018-05-13T16:13:44.513Z,3.30
2018-05-13T16:16:15.874Z,2.77
2018-05-13T16:18:47.341Z,3.30
2018-05-13T16:21:18.575Z,3.83
2018-05-13T16:23:49.810Z,3.57
2018-05-13T16:26:21.072Z,3.20
2018-05-13T16:28:52.313Z,3.63
2018-05-13T16:31:23.477Z,3.53
2018-05-13T16:33:55.079Z,3.47
2018-05-13T16:36:26.277Z,3.27
2018-05-13T16:38:57.551Z,3.20
2018-05-13T16:41:28.835Z,2.83
2018-05-13T16:44:00.079Z,2.90
2018-05-13T16:46:31.527Z,3.50
2018-05-13T16:49:02.729Z,3.43
2018-05-13T16:51:34.789Z,3.47
2018-05-13T16:54:07.090Z,3.10
2018-05-13T16:56:38.282Z,3.00
2018-05-13T16:59:09.670Z,3.00
2018-05-13T17:01:55.799Z,3.30
2018-05-13T17:04:27.016Z,3.10
2018-05-13T17:06:58.234Z,3.20
2018-05-13T17:09:30.211Z,3.10
2018-05-13T17:12:01.387Z,3.40
2018-05-13T17:14:32.615Z,3.60
2018-05-13T17:17:03.871Z,3.27
2018-05-13T17:19:35.066Z,3.50
2018-05-13T17:22:07.025Z,7.40
2018-05-13T17:24:39.014Z,4.63
2018-05-13T17:27:10.262Z,7.90
2018-05-13T17:29:41.448Z,11.00
2018-05-13T17:32:12.612Z,3.90
2018-05-13T17:34:44.571Z,7.00
2018-05-13T17:37:15.857Z,3.70
2018-05-13T17:39:47.135Z,5.00
2018-05-13T17:42:18.425Z,3.57
2018-05-13T17:44:50.401Z,3.67
2018-05-13T17:47:21.724Z,3.50
2018-05-13T17:49:52.991Z,3.70
2018-05-13T17:52:24.930Z,3.30
2018-05-13T17:54:56.135Z,3.10
2018-05-13T17:57:27.411Z,6.13
2018-05-13T17:59:58.641Z,4.67
2018-05-13T18:02:29.923Z,5.90
2018-05-13T18:05:01.102Z,6.33
2018-05-13T18:07:32.292Z,9.17
2018-05-13T18:10:04.211Z,4.80
2018-05-13T18:12:35.449Z,3.57
2018-05-13T18:15:06.630Z,4.00
2018-05-13T18:17:37.906Z,3.80
2018-05-13T18:20:09.092Z,3.57
2018-05-13T18:22:40.287Z,3.47
2018-05-13T18:25:11.496Z,3.43
2018-05-13T18:27:42.763Z,3.70
2018-05-13T18:30:14.849Z,3.67
2018-05-13T18:32:46.093Z,3.80
2018-05-13T18:35:17.291Z,4.10
2018-05-13T18:37:48.481Z,3.60
2018-05-13T18:40:19.678Z,3.90
2018-05-13T18:42:50.981Z,4.50
2018-05-13T18:45:22.175Z,4.00
2018-05-13T18:47:53.451Z,4.43
2018-05-13T18:50:25.391Z,4.90
2018-05-13T18:52:58.051Z,6.33
2018-05-13T18:55:30.016Z,4.27
2018-05-13T18:58:01.947Z,3.50
2018-05-13T19:00:33.159Z,4.60
2018-05-13T19:03:04.372Z,4.23
2018-05-13T19:05:35.577Z,4.17
2018-05-13T19:08:06.794Z,3.60
2018-05-13T19:10:38.091Z,3.63
2018-05-13T19:13:09.240Z,4.10
2018-05-13T19:15:40.435Z,4.37
2018-05-13T19:18:11.797Z,4.37
2018-05-13T19:20:43.250Z,4.30
2018-05-13T19:23:14.455Z,4.40
2018-05-13T19:25:46.437Z,4.40
2018-05-13T19:28:17.649Z,4.33
2018-05-13T19:30:49.845Z,5.17
2018-05-13T19:33:21.035Z,4.40
2018-05-13T19:35:52.271Z,4.47
2018-05-13T19:38:23.471Z,4.73
2018-05-13T19:40:54.716Z,4.40
2018-05-13T19:43:26.130Z,4.60
2018-05-13T19:45:57.306Z,4.60
2018-05-13T19:48:28.578Z,4.63
2018-05-13T19:50:59.780Z,4.80
2018-05-13T19:53:31.090Z,4.60
2018-05-13T19:56:05.852Z,5.00
2018-05-13T19:58:37.296Z,5.07
2018-05-13T20:01:09.184Z,5.40
2018-05-13T20:03:40.592Z,4.97
2018-05-13T20:06:11.565Z,4.67
2018-05-13T20:08:42.839Z,5.13
2018-05-13T20:11:14.394Z,5.00
2018-05-13T20:13:45.575Z,4.17
2018-05-13T20:16:17.899Z,4.23
2018-05-13T20:18:49.151Z,4.77
2018-05-13T20:21:20.464Z,4.27
2018-05-13T20:23:51.663Z,4.77
2018-05-13T20:26:23.376Z,4.57
2018-05-13T20:28:54.616Z,4.30
2018-05-13T20:31:25.823Z,4.47
2018-05-13T20:33:57.864Z,4.80
2018-05-13T20:36:29.079Z,4.27
2018-05-13T20:39:00.300Z,4.67
2018-05-13T20:41:31.859Z,4.90
2018-05-13T20:44:03.115Z,4.53
2018-05-13T20:46:35.497Z,4.60
2018-05-13T20:49:07.761Z,4.17
2018-05-13T20:51:53.949Z,5.23
2018-05-13T20:54:25.131Z,4.60
2018-05-13T20:56:56.343Z,4.77
2018-05-13T20:59:27.649Z,3.97
2018-05-13T21:01:58.879Z,4.67
2018-05-13T21:04:30.960Z,4.83
2018-05-13T21:07:02.147Z,3.90
2018-05-13T21:09:33.351Z,4.77
2018-05-13T21:12:05.369Z,4.27
2018-05-13T21:14:37.604Z,5.40
2018-05-13T21:17:08.789Z,4.93
2018-05-13T21:19:40.851Z,5.47
2018-05-13T21:22:12.006Z,4.53
2018-05-13T21:24:43.224Z,4.83
2018-05-13T21:27:14.474Z,4.70
2018-05-13T21:29:45.904Z,4.23
2018-05-13T21:32:17.131Z,5.10
2018-05-13T21:34:48.365Z,5.07
2018-05-13T21:37:19.553Z,4.57
2018-05-13T21:39:50.761Z,4.93
2018-05-13T21:42:21.942Z,4.87
2018-05-13T21:44:53.188Z,4.67
2018-05-13T21:47:24.353Z,4.80
2018-05-13T21:49:55.733Z,5.00
2018-05-13T21:52:27.253Z,4.97
2018-05-13T21:54:59.192Z,4.90
2018-05-13T21:57:30.436Z,4.80
2018-05-13T22:00:01.684Z,5.57
2018-05-13T22:02:33.291Z,6.83
2018-05-13T22:05:04.489Z,5.47
2018-05-13T22:07:36.487Z,5.93
2018-05-13T22:10:07.727Z,5.10
2018-05-13T22:12:39.177Z,4.93
2018-05-13T22:15:10.396Z,5.13
2018-05-13T22:17:42.375Z,5.20
2018-05-13T22:20:14.301Z,4.67
2018-05-13T22:22:45.540Z,5.03
2018-05-13T22:25:16.712Z,4.83
2018-05-13T22:27:48.655Z,4.70
2018-05-13T22:30:19.917Z,4.93
2018-05-13T22:32:52.904Z,5.20
2018-05-13T22:35:24.869Z,4.80
2018-05-13T22:37:56.794Z,4.60
2018-05-13T22:40:28.207Z,5.60
2018-05-13T22:42:59.394Z,4.60
2018-05-13T22:45:30.595Z,4.77
2018-05-13T22:48:01.835Z,4.73
2018-05-13T22:50:33.085Z,5.23
2018-05-13T22:53:04.247Z,4.83
2018-05-13T22:55:37.220Z,5.43
2018-05-13T22:58:10.164Z,5.00
2018-05-13T23:00:43.125Z,4.83
2018-05-13T23:03:16.640Z,5.20
2018-05-13T23:05:49.597Z,4.97
2018-05-13T23:08:22.560Z,4.50
2018-05-13T23:10:55.567Z,5.00
2018-05-13T23:13:26.740Z,5.47
2018-05-13T23:15:59.698Z,4.50
2018-05-13T23:18:32.597Z,5.03
2018-05-13T23:21:05.890Z,5.00
2018-05-13T23:23:38.803Z,5.00
2018-05-13T23:26:11.754Z,4.43
2018-05-13T23:28:44.674Z,5.00
2018-05-13T23:31:17.869Z,5.13
2018-05-13T23:33:50.782Z,5.03
2018-05-13T23:36:22.001Z,4.80
2018-05-13T23:38:53.184Z,5.17
2018-05-13T23:41:24.475Z,5.17
2018-05-13T23:43:55.784Z,4.73
2018-05-13T23:46:26.979Z,5.53
2018-05-13T23:48:58.184Z,5.07
2018-05-13T23:51:30.176Z,5.23
2018-05-13T23:54:01.740Z,4.60
2018-05-13T23:56:32.991Z,5.07
2018-05-13T23:59:04.217Z,5.80
